Time;durP1;ratioP1;P1;durP2;ratioP2;P2;SDS_P1;SDS_P2;PMS_P1;PMS_P2;Temp;Humidity;BMP_temperature;BMP_pressure;BME280_temperature;BME280_humidity;BME280_pressure;Samples;Min_cycle;Max_cycle;Signal;HPM_P1;HPM_P2
2022/07/21 00:01:14;;;;;;;18.85;16.88;;;;;;;18.51;100.00;96511.88;5092090;28;20052;-82
2022/07/21 00:03:40;;;;;;;20.75;17.27;;;;;;;18.69;100.00;96526.47;5047564;28;20043;-81
2022/07/21 00:06:06;;;;;;;18.92;16.27;;;;;;;18.71;100.00;96541.22;5082356;28;20043;-82
2022/07/21 00:08:32;;;;;;;19.67;16.67;;;;;;;18.78;100.00;96536.75;5062110;28;20402;-82
2022/07/21 00:10:57;;;;;;;17.23;15.32;;;;;;;18.75;100.00;96547.81;5063640;28;20050;-82
2022/07/21 00:13:23;;;;;;;17.63;14.65;;;;;;;18.76;100.00;96546.78;5084119;28;20452;-82
2022/07/21 00:15:49;;;;;;;15.55;13.52;;;;;;;18.77;100.00;96551.06;5068234;28;20037;-82
2022/07/21 00:18:16;;;;;;;18.63;13.65;;;;;;;18.66;100.00;96558.81;5065956;28;20029;-82
2022/07/21 00:20:42;;;;;;;14.85;13.38;;;;;;;18.80;100.00;96542.69;5076539;28;20062;-81
2022/07/21 00:23:08;;;;;;;15.48;13.48;;;;;;;18.73;100.00;96541.84;5090293;28;20032;-82
2022/07/21 00:25:33;;;;;;;14.93;13.23;;;;;;;18.69;100.00;96540.59;5051335;28;20024;-82
2022/07/21 00:27:59;;;;;;;17.77;13.95;;;;;;;18.59;100.00;96540.97;5064429;28;20059;-82
2022/07/21 00:30:25;;;;;;;16.65;14.95;;;;;;;18.72;100.00;96537.56;5056842;28;20485;-82
2022/07/21 00:32:50;;;;;;;18.25;16.35;;;;;;;18.64;100.00;96547.53;5061522;28;20039;-82
2022/07/21 00:35:16;;;;;;;17.80;15.70;;;;;;;18.65;100.00;96551.88;5057987;28;20031;-82
2022/07/21 00:37:42;;;;;;;18.60;16.60;;;;;;;18.69;100.00;96543.25;5063145;28;20042;-81
2022/07/21 00:40:10;;;;;;;20.42;16.60;;;;;;;18.59;100.00;96554.31;5022365;28;20041;-81
2022/07/21 00:42:36;;;;;;;17.48;15.65;;;;;;;18.65;100.00;96562.53;5037506;28;20448;-81
2022/07/21 00:45:05;;;;;;;20.60;16.55;;;;;;;18.58;100.00;96562.50;5040115;28;20138;-82
2022/07/21 00:47:31;;;;;;;18.85;16.88;;;;;;;18.63;100.00;96564.56;5057075;28;20032;-82
2022/07/21 00:49:58;;;;;;;19.70;17.67;;;;;;;18.63;100.00;96577.88;5083232;28;20051;-81
2022/07/21 00:52:25;;;;;;;20.67;18.50;;;;;;;18.63;100.00;96584.00;5035893;28;20032;-82
2022/07/21 00:54:51;;;;;;;22.23;18.70;;;;;;;18.63;100.00;96584.00;5036223;28;20035;-82
2022/07/21 00:57:17;;;;;;;19.17;17.17;;;;;;;18.51;100.00;96588.28;5035342;28;20028;-82
2022/07/21 00:59:43;;;;;;;20.90;18.75;;;;;;;18.58;100.00;96579.31;5067921;28;20037;-82
2022/07/21 01:02:10;;;;;;;24.15;21.58;;;;;;;18.62;100.00;96587.72;5049857;28;20127;-82
2022/07/21 01:04:36;;;;;;;23.50;21.02;;;;;;;18.60;100.00;96600.41;5060236;28;20860;-81
2022/07/21 01:07:03;;;;;;;22.23;19.83;;;;;;;18.65;100.00;96611.28;5055718;28;20036;-82
2022/07/21 01:09:29;;;;;;;23.25;21.02;;;;;;;18.64;100.00;96606.16;5079391;28;20027;-82
2022/07/21 01:11:55;;;;;;;22.70;20.50;;;;;;;18.60;100.00;96603.06;5045140;28;20051;-82
2022/07/21 01:14:21;;;;;;;25.10;21.35;;;;;;;18.55;100.00;96601.00;5069028;28;20032;-82
2022/07/21 01:16:46;;;;;;;23.75;21.25;;;;;;;18.62;100.00;96595.69;5070808;28;20107;-82
2022/07/21 01:19:12;;;;;;;23.23;20.80;;;;;;;18.60;100.00;96597.72;5040552;28;20036;-81
2022/07/21 01:21:44;;;;;;;22.52;20.20;;;;;;;18.53;100.00;96605.69;5041734;28;20447;-81
2022/07/21 01:24:10;;;;;;;22.25;20.15;;;;;;;18.50;100.00;96587.47;5050550;28;20116;-82
2022/07/21 01:26:45;;;;;;;23.33;21.02;;;;;;;18.52;100.00;96581.94;5074511;28;20045;-82
2022/07/21 01:29:11;;;;;;;21.73;19.42;;;;;;;18.48;100.00;96586.03;5081840;28;20024;-82
2022/07/21 01:31:40;;;;;;;22.85;19.67;;;;;;;18.48;100.00;96573.53;5053598;28;20105;-82
2022/07/21 01:34:06;;;;;;;21.83;19.52;;;;;;;18.51;100.00;96583.78;5042514;28;20029;-82
2022/07/21 01:36:32;;;;;;;23.00;20.60;;;;;;;18.46;100.00;96586.22;5064729;28;20081;-82
2022/07/21 01:41:43;;;;;;;20.25;18.25;;;;;;;18.39;100.00;96590.72;5053185;28;20033;-82
2022/07/21 01:44:10;;;;;;;21.17;18.88;;;;;;;18.33;100.00;96602.16;5059671;28;20082;-82
2022/07/21 01:46:49;;;;;;;21.20;19.08;;;;;;;18.31;100.00;96604.22;5048724;28;20031;-82
2022/07/21 01:49:18;;;;;;;22.02;19.73;;;;;;;18.30;100.00;96595.38;5046016;28;20107;-82
2022/07/21 01:51:44;;;;;;;27.92;25.08;;;;;;;18.25;100.00;96581.03;5054376;28;20044;-82
2022/07/21 01:54:10;;;;;;;25.52;20.27;;;;;;;18.30;100.00;96575.91;5092374;28;20036;-82
2022/07/21 01:56:38;;;;;;;23.30;20.88;;;;;;;18.33;100.00;96571.00;5055208;28;20056;-81
2022/07/21 01:59:05;;;;;;;22.73;19.80;;;;;;;18.29;100.00;96582.28;5041911;28;20115;-82
2022/07/21 02:01:31;;;;;;;23.55;19.85;;;;;;;18.29;100.00;96575.09;5050238;28;20459;-82
2022/07/21 02:03:59;;;;;;;22.08;19.40;;;;;;;18.23;100.00;96575.91;5066310;28;20055;-82
2022/07/21 02:06:25;;;;;;;21.75;19.65;;;;;;;18.23;100.00;96572.41;5055856;28;20024;-82
2022/07/21 02:08:51;;;;;;;22.30;19.98;;;;;;;18.23;100.00;96570.56;5062527;28;20032;-81
2022/07/21 02:11:17;;;;;;;22.92;20.52;;;;;;;18.23;100.00;96564.44;5046927;28;20032;-82
2022/07/21 02:13:44;;;;;;;23.10;20.80;;;;;;;18.29;100.00;96580.44;5066136;28;20033;-82
2022/07/21 02:16:10;;;;;;;22.20;20.08;;;;;;;18.32;100.00;96598.66;5062583;28;20052;-82
2022/07/21 02:18:37;;;;;;;23.95;21.45;;;;;;;18.34;100.00;96603.78;5058019;28;20035;-82
2022/07/21 02:21:03;;;;;;;23.23;21.02;;;;;;;18.37;100.00;96598.06;5059061;28;20036;-82
2022/07/21 02:23:29;;;;;;;23.98;21.58;;;;;;;18.41;100.00;96615.31;5037601;28;20041;-81
2022/07/21 02:25:56;;;;;;;25.67;23.02;;;;;;;18.43;100.00;96623.09;5052122;28;20028;-82
2022/07/21 02:28:23;;;;;;;23.80;21.33;;;;;;;18.37;100.00;96641.47;5074152;28;20035;-82
2022/07/21 02:30:50;;;;;;;23.27;20.77;;;;;;;18.30;100.00;96640.63;5054740;28;20028;-82
2022/07/21 02:33:16;;;;;;;25.80;22.15;;;;;;;18.33;100.00;96639.44;5064509;28;20040;-82
2022/07/21 02:35:42;;;;;;;22.80;20.48;;;;;;;18.33;100.00;96652.75;5040738;28;20039;-81
2022/07/21 02:38:07;;;;;;;24.38;21.33;;;;;;;18.28;100.00;96668.50;5068411;28;20099;-82
2022/07/21 02:40:34;;;;;;;24.02;21.65;;;;;;;18.21;100.00;96662.28;5053653;28;20036;-81
2022/07/21 02:42:59;;;;;;;25.50;22.90;;;;;;;18.25;100.00;96687.53;5066353;28;20035;-82
2022/07/21 02:45:26;;;;;;;24.63;22.23;;;;;;;18.20;100.00;96690.75;5084160;28;20082;-82
2022/07/21 02:47:59;;;;;;;24.75;22.23;;;;;;;18.14;100.00;96689.72;5037563;28;20032;-82
2022/07/21 02:50:28;;;;;;;26.02;23.30;;;;;;;18.11;100.00;96679.47;5047152;28;20387;-81
2022/07/21 02:52:58;;;;;;;26.30;23.63;;;;;;;18.10;100.00;96675.13;5065050;28;20449;-81
2022/07/21 02:55:25;;;;;;;26.45;23.75;;;;;;;18.15;100.00;96690.53;5051048;28;20047;-81
2022/07/21 02:58:09;;;;;;;26.02;23.33;;;;;;;18.23;100.00;96670.91;5047998;28;20036;-82
2022/07/21 03:00:38;;;;;;;25.92;23.15;;;;;;;18.19;100.00;96643.88;5029927;28;20124;-81
2022/07/21 03:03:05;;;;;;;25.67;23.08;;;;;;;18.27;100.00;96635.69;5074168;28;20032;-82
2022/07/21 03:05:31;;;;;;;25.50;22.77;;;;;;;18.25;100.00;96644.94;5063526;28;20489;-82
2022/07/21 03:07:57;;;;;;;27.25;24.30;;;;;;;18.28;100.00;96631.22;5038517;28;20037;-82
2022/07/21 03:10:23;;;;;;;27.08;24.35;;;;;;;18.38;100.00;96637.81;5053914;28;20051;-82
2022/07/21 03:12:48;;;;;;;27.25;24.60;;;;;;;18.46;100.00;96647.47;5059222;28;20416;-82
2022/07/21 03:15:14;;;;;;;27.52;24.83;;;;;;;18.55;100.00;96664.13;5040649;28;20028;-82
2022/07/21 03:17:39;;;;;;;25.33;22.92;;;;;;;18.47;100.00;96659.75;5048793;28;20028;-82
2022/07/21 03:20:06;;;;;;;25.42;22.90;;;;;;;18.50;100.00;96653.22;5056155;28;20024;-82
2022/07/21 03:22:31;;;;;;;25.45;22.95;;;;;;;18.55;100.00;96648.13;5096441;28;20045;-82
2022/07/21 03:24:57;;;;;;;25.75;23.15;;;;;;;18.60;100.00;96654.50;5083513;28;20043;-81
2022/07/21 03:27:23;;;;;;;25.42;22.75;;;;;;;18.53;100.00;96656.31;5053910;28;20044;-82
2022/07/21 03:29:48;;;;;;;24.45;22.05;;;;;;;18.58;100.00;96664.53;5046648;28;20060;-82
2022/07/21 03:32:14;;;;;;;25.08;22.50;;;;;;;18.56;100.00;96661.25;5066307;28;20023;-82
2022/07/21 03:34:40;;;;;;;24.48;21.90;;;;;;;18.58;100.00;96656.53;5041792;28;20449;-82
2022/07/21 03:37:05;;;;;;;28.00;22.95;;;;;;;18.54;100.00;96649.13;5053332;28;20032;-83
2022/07/21 03:39:31;;;;;;;25.17;22.50;;;;;;;18.60;100.00;96653.66;5061351;28;20040;-82
2022/07/21 03:41:57;;;;;;;26.77;24.10;;;;;;;18.53;100.00;96650.97;5066535;28;20040;-82
2022/07/21 03:44:22;;;;;;;27.35;24.40;;;;;;;18.54;100.00;96646.47;5063418;28;20033;-82
2022/07/21 03:46:48;;;;;;;25.42;22.00;;;;;;;18.55;100.00;96643.63;5066326;28;20024;-82
2022/07/21 03:49:13;;;;;;;26.45;23.75;;;;;;;18.56;100.00;96633.78;5068697;28;20054;-81
2022/07/21 03:51:39;;;;;;;24.83;22.33;;;;;;;18.64;100.00;96640.78;5042458;28;20035;-81
2022/07/21 03:54:05;;;;;;;25.55;22.75;;;;;;;18.51;100.00;96633.56;5040980;28;20033;-81
2022/07/21 03:56:30;;;;;;;24.90;22.17;;;;;;;18.58;100.00;96639.75;5046824;28;20455;-82
2022/07/21 03:59:04;;;;;;;24.80;22.27;;;;;;;18.58;100.00;96640.56;5080150;28;20047;-81
2022/07/21 04:01:30;;;;;;;25.38;22.77;;;;;;;18.55;100.00;96632.97;5081089;28;20239;-82
2022/07/21 04:03:56;;;;;;;25.02;22.45;;;;;;;18.59;100.00;96639.53;5056556;28;20036;-81
2022/07/21 04:06:21;;;;;;;25.17;22.40;;;;;;;18.54;100.00;96646.47;5060592;28;20067;-82
2022/07/21 04:08:47;;;;;;;25.42;22.73;;;;;;;18.53;100.00;96656.31;5061690;28;20036;-82
2022/07/21 04:11:13;;;;;;;25.52;22.83;;;;;;;18.52;100.00;96662.66;5051803;28;20036;-82
2022/07/21 04:13:38;;;;;;;25.48;22.83;;;;;;;18.52;100.00;96669.84;5057985;28;20129;-81
2022/07/21 04:16:04;;;;;;;31.50;27.85;;;;;;;18.54;100.00;96684.59;5038268;28;20033;-82
2022/07/21 04:18:30;;;;;;;25.27;22.77;;;;;;;18.47;100.00;96683.72;5045011;28;20089;-82
2022/07/21 04:20:56;;;;;;;24.20;21.90;;;;;;;18.52;100.00;96691.16;5043051;28;20390;-82
2022/07/21 04:23:21;;;;;;;24.42;22.10;;;;;;;18.64;100.00;96689.53;5058692;28;20033;-82
2022/07/21 04:25:47;;;;;;;25.10;22.58;;;;;;;18.72;100.00;96696.59;5038436;28;20041;-82
2022/07/21 04:28:13;;;;;;;26.20;23.60;;;;;;;18.70;100.00;96693.25;5054956;28;20037;-81
2022/07/21 04:30:38;;;;;;;31.15;25.38;;;;;;;18.71;100.00;96700.22;5049200;28;20041;-79
2022/07/21 04:33:06;;;;;;;25.42;22.98;;;;;;;18.69;100.00;96695.09;5038088;28;20032;-79
2022/07/21 04:35:32;;;;;;;30.08;23.55;;;;;;;18.64;100.00;96688.72;5053909;28;20366;-79
2022/07/21 04:37:58;;;;;;;27.15;24.52;;;;;;;18.54;100.00;96692.59;5055120;28;20020;-79
2022/07/21 04:40:23;;;;;;;25.38;22.92;;;;;;;18.64;100.00;96694.06;5063049;28;20146;-78
2022/07/21 04:42:49;;;;;;;26.95;24.25;;;;;;;18.56;100.00;96695.88;5037574;28;20096;-79
2022/07/21 04:45:16;;;;;;;26.48;23.55;;;;;;;18.64;100.00;96696.72;5062649;28;20052;-79
2022/07/21 04:47:43;;;;;;;25.13;22.58;;;;;;;18.56;100.00;96690.53;5047747;28;20087;-80
2022/07/21 04:50:09;;;;;;;25.92;23.35;;;;;;;18.55;100.00;96696.91;5080983;28;20482;-78
2022/07/21 04:52:35;;;;;;;26.00;23.40;;;;;;;18.59;100.00;96700.81;5055491;28;20111;-78
2022/07/21 04:55:01;;;;;;;26.33;23.42;;;;;;;18.69;100.00;96707.63;5051048;28;20108;-79
2022/07/21 04:57:26;;;;;;;24.92;22.42;;;;;;;18.54;100.00;96707.72;5087859;28;20036;-78
2022/07/21 04:59:52;;;;;;;26.05;23.48;;;;;;;18.61;100.00;96706.75;5045876;28;20039;-79
2022/07/21 05:02:18;;;;;;;25.45;22.75;;;;;;;18.74;100.00;96699.84;5070679;28;20047;-79
2022/07/21 05:04:43;;;;;;;23.58;20.85;;;;;;;18.96;100.00;96701.38;5067356;28;20036;-78
2022/07/21 05:07:09;;;;;;;27.10;23.75;;;;;;;18.92;100.00;96702.00;5075484;28;20040;-79
2022/07/21 05:09:35;;;;;;;29.45;26.40;;;;;;;18.90;100.00;96715.50;5045616;28;20024;-79
2022/07/21 05:12:01;;;;;;;26.65;23.73;;;;;;;18.97;100.00;96716.34;5054285;28;20127;-79
2022/07/21 05:14:27;;;;;;;24.98;22.48;;;;;;;18.84;100.00;96708.28;5091512;28;20374;-79
2022/07/21 05:16:53;;;;;;;23.75;20.20;;;;;;;18.98;100.00;96712.69;5054963;28;20120;-79
2022/07/21 05:19:18;;;;;;;23.77;21.27;;;;;;;18.97;100.00;96715.53;5063917;28;20460;-79
2022/07/21 05:21:45;;;;;;;23.77;21.35;;;;;;;18.86;100.00;96713.44;5063488;28;20079;-79
2022/07/21 05:24:11;;;;;;;22.10;19.80;;;;;;;18.93;100.00;96715.09;5038349;28;20052;-78
2022/07/21 05:26:37;;;;;;;23.55;21.05;;;;;;;18.91;100.00;96705.66;5034670;28;20261;-78
2022/07/21 05:29:03;;;;;;;23.58;21.23;;;;;;;18.91;100.00;96713.66;5038096;28;20036;-79
2022/07/21 05:31:28;;;;;;;22.50;20.35;;;;;;;19.06;100.00;96725.81;5054756;28;20503;-78
2022/07/21 05:33:54;;;;;;;22.70;20.40;;;;;;;19.01;100.00;96720.28;5055511;28;20109;-79
2022/07/21 05:36:20;;;;;;;23.30;21.00;;;;;;;19.15;100.00;96726.47;5054721;28;20029;-78
2022/07/21 05:38:46;;;;;;;23.10;20.73;;;;;;;19.14;100.00;96729.31;5059037;28;20049;-80
2022/07/21 05:41:12;;;;;;;23.50;21.00;;;;;;;19.19;100.00;96732.22;5049735;28;20124;-79
2022/07/21 05:43:38;;;;;;;21.60;19.55;;;;;;;19.10;100.00;96728.06;5065013;28;20131;-78
2022/07/21 05:46:03;;;;;;;22.60;20.30;;;;;;;19.32;100.00;96718.91;5073170;28;20020;-79
2022/07/21 05:48:29;;;;;;;22.83;20.52;;;;;;;19.34;100.00;96726.69;5056683;28;20131;-79
2022/07/21 05:50:54;;;;;;;23.00;20.70;;;;;;;19.50;100.00;96718.31;5060793;28;20036;-79
2022/07/21 05:53:20;;;;;;;24.80;20.92;;;;;;;19.57;100.00;96707.66;5063241;28;20031;-79
2022/07/21 05:55:46;;;;;;;20.38;18.27;;;;;;;19.82;100.00;96708.72;5067966;28;20039;-79
2022/07/21 05:58:12;;;;;;;21.90;19.60;;;;;;;20.07;100.00;96689.41;5067703;28;20489;-79
2022/07/21 06:00:37;;;;;;;22.60;20.20;;;;;;;19.98;100.00;96694.94;5038395;28;20047;-79
2022/07/21 06:03:03;;;;;;;21.98;19.65;;;;;;;19.77;100.00;96703.16;5058825;28;20036;-79
2022/07/21 06:05:29;;;;;;;19.55;17.67;;;;;;;19.87;100.00;96697.41;5088264;28;20036;-79
2022/07/21 06:07:54;;;;;;;21.10;18.52;;;;;;;19.82;100.00;96691.88;5061830;28;20036;-79
2022/07/21 06:10:20;;;;;;;22.23;19.15;;;;;;;19.88;100.00;96701.72;5045210;28;20036;-79
2022/07/21 06:12:46;;;;;;;33.13;29.63;;;;;;;20.00;100.00;96710.75;5047622;28;20040;-79
2022/07/21 06:15:12;;;;;;;31.33;28.17;;;;;;;19.79;100.00;96719.81;5063063;28;20416;-79
2022/07/21 06:17:45;;;;;;;21.15;18.98;;;;;;;19.98;100.00;96712.81;5087425;28;20170;-79
2022/07/21 06:20:12;;;;;;;24.67;19.00;;;;;;;19.78;100.00;96721.66;5070884;28;20036;-79
2022/07/21 06:22:38;;;;;;;20.88;18.67;;;;;;;19.75;100.00;96723.88;5072074;28;20024;-79
2022/07/21 06:25:05;;;;;;;18.75;16.83;;;;;;;19.89;100.00;96725.56;5069634;28;20139;-79
2022/07/21 06:27:33;;;;;;;19.17;17.30;;;;;;;19.72;100.00;96729.66;5058658;28;20036;-79
2022/07/21 06:29:59;;;;;;;23.38;18.52;;;;;;;19.89;100.00;96741.56;5042542;28;20052;-79
2022/07/21 06:32:25;;;;;;;19.33;17.30;;;;;;;19.92;100.00;96737.66;5070507;28;20440;-80
2022/07/21 06:34:51;;;;;;;20.17;18.17;;;;;;;20.06;100.00;96735.81;5046741;28;20032;-79
2022/07/21 06:37:17;;;;;;;18.98;17.00;;;;;;;20.49;100.00;96722.81;5082970;28;20050;-79
2022/07/21 06:39:43;;;;;;;17.10;15.30;;;;;;;20.17;100.00;96721.81;5061203;28;20093;-80
2022/07/21 06:42:10;;;;;;;17.25;15.10;;;;;;;20.14;100.00;96722.25;5069455;28;20113;-79
2022/07/21 06:44:35;;;;;;;16.30;14.48;;;;;;;20.43;100.00;96726.31;5072709;28;20662;-80
2022/07/21 06:47:04;;;;;;;17.92;15.80;;;;;;;20.47;100.00;96728.34;5042720;28;20044;-80
2022/07/21 06:49:31;;;;;;;18.35;15.35;;;;;;;20.39;100.00;96727.75;5054086;28;20036;-79
2022/07/21 06:51:57;;;;;;;15.32;13.77;;;;;;;20.80;100.00;96721.28;5066442;28;20039;-79
2022/07/21 06:54:22;;;;;;;16.52;13.00;;;;;;;21.36;100.00;96717.94;5062081;28;20062;-79
2022/07/21 06:56:48;;;;;;;13.65;12.23;;;;;;;22.05;100.00;96713.50;5067224;28;20068;-79
2022/07/21 06:59:14;;;;;;;14.35;11.70;;;;;;;21.93;100.00;96716.09;5052460;28;20624;-79
2022/07/21 07:01:39;;;;;;;13.15;11.43;;;;;;;21.60;100.00;96711.00;5038755;28;20032;-79
2022/07/21 07:04:05;;;;;;;14.03;11.67;;;;;;;22.77;100.00;96706.59;5062566;28;20031;-79
2022/07/21 07:06:31;;;;;;;14.20;11.45;;;;;;;22.76;100.00;96704.94;5047316;28;20980;-79
2022/07/21 07:08:56;;;;;;;13.15;11.30;;;;;;;22.80;100.00;96708.84;5036328;28;20532;-79
2022/07/21 07:11:22;;;;;;;12.38;10.50;;;;;;;23.09;100.00;96709.09;5051027;28;20394;-79
2022/07/21 07:13:48;;;;;;;12.25;10.02;;;;;;;22.88;100.00;96712.25;5038901;28;20420;-79
2022/07/21 07:16:13;;;;;;;12.70;10.40;;;;;;;23.38;100.00;96712.03;5074678;28;20033;-79
2022/07/21 07:18:39;;;;;;;13.07;9.55;;;;;;;24.03;100.00;96704.00;5073275;28;20032;-78
2022/07/21 07:21:05;;;;;;;10.90;9.73;;;;;;;24.27;100.00;96712.06;5042910;28;20020;-78
2022/07/21 07:23:31;;;;;;;11.30;9.65;;;;;;;24.43;100.00;96711.38;5060033;28;20047;-79
2022/07/21 07:25:57;;;;;;;13.35;9.52;;;;;;;24.42;100.00;96707.88;5051388;28;20020;-78
2022/07/21 07:28:23;;;;;;;9.57;8.57;;;;;;;24.53;100.00;96714.28;5080118;28;20115;-78
2022/07/21 07:30:49;;;;;;;11.10;8.80;;;;;;;24.35;100.00;96717.09;5049026;28;20143;-79
2022/07/21 07:33:15;;;;;;;12.25;8.98;;;;;;;23.83;100.00;96725.00;5053581;28;20029;-79
2022/07/21 07:35:40;;;;;;;11.70;9.82;;;;;;;23.08;100.00;96715.53;5075424;28;20116;-79
2022/07/21 07:38:06;;;;;;;10.77;9.23;;;;;;;22.69;100.00;96720.28;5038768;28;20025;-79
2022/07/21 07:40:32;;;;;;;9.98;8.60;;;;;;;23.63;100.00;96725.28;5046957;28;20067;-79
2022/07/21 07:42:58;;;;;;;11.77;9.02;;;;;;;23.09;100.00;96722.53;5060100;28;20543;-79
2022/07/21 07:45:26;;;;;;;12.52;7.78;;;;;;;22.81;100.00;96723.88;5074545;28;20013;-79
2022/07/21 07:47:51;;;;;;;12.02;8.98;;;;;;;23.77;100.00;96724.03;5043551;28;20057;-78
2022/07/21 07:50:17;;;;;;;10.90;8.38;;;;;;;24.04;100.00;96720.94;5048342;28;20031;-79
2022/07/21 07:52:44;;;;;;;14.15;8.57;;;;;;;24.41;100.00;96710.78;5017140;28;20063;-79
2022/07/21 07:55:12;;;;;;;10.95;8.20;;;;;;;24.67;100.00;96721.03;5052798;28;20021;-79
2022/07/21 07:57:39;;;;;;;10.98;8.13;;;;;;;23.39;100.00;96721.72;5049412;28;20032;-79
2022/07/21 08:00:09;;;;;;;10.38;8.05;;;;;;;23.68;100.00;96710.16;5075922;28;20056;-78
2022/07/21 08:02:37;;;;;;;10.90;8.27;;;;;;;25.17;100.00;96709.69;5068742;28;20044;-78
2022/07/21 08:05:04;;;;;;;10.63;9.30;;;;;;;25.80;100.00;96717.84;5077535;28;20085;-78
2022/07/21 08:07:31;;;;;;;9.52;8.30;;;;;;;25.56;100.00;96712.56;5073082;28;20471;-78
2022/07/21 08:09:56;;;;;;;9.40;7.05;;;;;;;25.09;100.00;96704.69;5056096;28;20025;-79
2022/07/21 08:12:22;;;;;;;10.98;7.65;;;;;;;25.64;100.00;96708.66;5054549;28;20036;-78
2022/07/21 08:14:48;;;;;;;13.82;8.43;;;;;;;25.99;100.00;96716.56;5053361;28;20444;-79
2022/07/21 08:17:13;;;;;;;10.20;7.90;;;;;;;26.36;97.83;96717.88;5053030;28;20099;-79
2022/07/21 08:19:39;;;;;;;9.80;7.25;;;;;;;26.84;94.42;96711.84;5033791;28;20024;-79
2022/07/21 08:22:06;;;;;;;9.38;7.28;;;;;;;26.79;88.23;96711.75;5049381;28;20045;-79
2022/07/21 08:24:31;;;;;;;10.82;7.50;;;;;;;26.74;92.43;96703.63;5037031;28;20028;-79
2022/07/21 08:26:57;;;;;;;9.25;7.47;;;;;;;26.05;95.10;96712.84;5075019;28;20035;-79
2022/07/21 08:29:23;;;;;;;8.38;7.38;;;;;;;26.54;95.24;96704.16;5071299;28;20136;-79
2022/07/21 08:31:48;;;;;;;10.23;7.75;;;;;;;26.35;96.73;96719.78;5060389;28;20032;-79
2022/07/21 08:34:14;;;;;;;9.82;8.25;;;;;;;26.71;94.47;96715.72;5079199;28;20031;-78
2022/07/21 08:36:40;;;;;;;9.20;7.75;;;;;;;25.09;100.00;96723.53;5063163;28;20050;-78
2022/07/21 08:39:06;;;;;;;10.68;8.05;;;;;;;25.15;100.00;96725.28;5052604;28;20024;-78
2022/07/21 08:41:32;;;;;;;9.57;7.75;;;;;;;24.93;100.00;96724.28;5061296;28;20123;-78
2022/07/21 08:43:58;;;;;;;10.18;7.65;;;;;;;24.51;100.00;96723.63;5060966;28;20023;-78
2022/07/21 08:46:24;;;;;;;8.93;7.38;;;;;;;25.97;100.00;96724.06;5032366;28;20048;-78
2022/07/21 08:48:50;;;;;;;8.48;7.45;;;;;;;26.61;93.88;96722.88;5050958;28;20028;-77
2022/07/21 08:51:17;;;;;;;8.95;6.80;;;;;;;26.84;87.10;96721.81;5037042;28;20021;-78
2022/07/21 08:53:46;;;;;;;8.18;6.22;;;;;;;26.46;89.69;96720.72;5060142;28;20035;-77
2022/07/21 08:56:12;;;;;;;9.23;6.20;;;;;;;27.09;82.78;96716.72;5057894;28;20032;-78
2022/07/21 08:58:38;;;;;;;7.90;6.30;;;;;;;26.68;85.20;96718.09;5057587;28;20730;-79
2022/07/21 09:01:04;;;;;;;8.35;5.80;;;;;;;25.59;88.88;96728.25;5046200;28;20036;-78
2022/07/21 09:03:30;;;;;;;7.97;5.75;;;;;;;24.89;96.23;96728.50;5060221;28;20040;-78
2022/07/21 09:06:06;;;;;;;8.18;6.07;;;;;;;24.82;98.11;96727.81;5050339;28;20028;-78
2022/07/21 09:08:35;;;;;;;8.15;6.18;;;;;;;24.92;97.16;96728.84;5062757;28;20102;-78
2022/07/21 09:11:35;;;;;;;8.35;6.05;;;;;;;25.25;96.27;96726.53;5038042;28;20032;-79
2022/07/21 09:14:08;;;;;;;8.00;6.20;;;;;;;25.01;100.00;96731.94;5022951;28;20036;-78
2022/07/21 09:16:54;;;;;;;8.70;5.85;;;;;;;26.39;92.13;96725.47;5074826;28;20016;-78
2022/07/21 09:19:20;;;;;;;7.47;5.80;;;;;;;27.53;79.74;96707.75;5069959;28;20488;-78
2022/07/21 09:21:46;;;;;;;7.60;5.72;;;;;;;26.98;80.86;96710.38;5068667;28;20063;-79
2022/07/21 09:24:15;;;;;;;8.02;6.53;;;;;;;26.55;80.60;96709.28;5042679;28;20040;-78
2022/07/21 09:27:10;;;;;;;8.23;6.03;;;;;;;27.01;77.19;96717.97;5048117;28;20024;-78
2022/07/21 09:29:52;;;;;;;7.18;5.55;;;;;;;28.34;68.87;96703.03;5046551;28;20122;-78
2022/07/21 09:32:30;;;;;;;7.28;4.30;;;;;;;27.87;67.24;96709.19;5062315;28;20032;-76
2022/07/21 09:35:09;;;;;;;8.20;5.93;;;;;;;27.49;69.12;96710.97;5057400;28;20084;-77
2022/07/21 09:37:37;;;;;;;7.38;5.28;;;;;;;27.66;64.06;96708.13;5076230;28;20031;-76
2022/07/21 09:40:07;;;;;;;7.32;5.43;;;;;;;28.09;63.28;96705.56;5042652;28;20440;-76
2022/07/21 09:42:39;;;;;;;7.93;5.20;;;;;;;26.63;66.68;96709.97;5046651;28;20404;-75
2022/07/21 09:45:07;;;;;;;7.78;4.78;;;;;;;27.74;61.85;96709.59;5080678;28;20082;-76
2022/07/21 09:47:34;;;;;;;7.45;4.93;;;;;;;29.12;52.33;96705.06;5072582;28;20141;-76
2022/07/21 09:50:01;;;;;;;8.23;5.85;;;;;;;28.52;53.32;96707.22;5043191;28;20060;-76
2022/07/21 09:52:33;;;;;;;6.60;4.20;;;;;;;29.20;54.34;96706.44;5050122;28;20076;-77
2022/07/21 09:55:05;;;;;;;6.78;4.82;;;;;;;29.30;56.65;96711.88;5061590;28;20030;-78
2022/07/21 09:57:30;;;;;;;10.00;5.75;;;;;;;29.33;52.96;96706.75;5076790;28;20032;-77
2022/07/21 09:59:57;;;;;;;10.35;5.80;;;;;;;28.83;56.47;96710.88;5050799;28;20037;-77
2022/07/21 10:02:28;;;;;;;8.38;6.05;;;;;;;29.65;56.35;96710.38;5034007;28;20032;-77
2022/07/21 10:05:04;;;;;;;8.57;5.93;;;;;;;29.28;55.53;96701.34;5050100;28;20082;-76
2022/07/21 10:07:31;;;;;;;7.05;5.55;;;;;;;29.84;54.14;96698.69;5087932;28;20036;-76
2022/07/21 10:09:58;;;;;;;7.70;5.85;;;;;;;30.10;53.58;96706.84;5056033;28;20040;-78
2022/07/21 10:12:26;;;;;;;7.57;5.85;;;;;;;30.29;52.43;96702.50;5066445;28;20055;-77
2022/07/21 10:14:52;;;;;;;6.22;5.07;;;;;;;30.15;53.22;96708.72;5046191;28;20032;-77
2022/07/21 10:17:20;;;;;;;6.90;5.35;;;;;;;30.14;51.08;96705.19;5068037;28;20043;-78
2022/07/21 10:20:01;;;;;;;8.02;6.03;;;;;;;30.72;47.96;96697.53;5074763;28;20032;-78
2022/07/21 10:22:57;;;;;;;7.90;5.20;;;;;;;30.88;47.37;96697.47;5080919;28;20081;-78
2022/07/21 10:25:25;;;;;;;7.85;4.88;;;;;;;31.70;47.95;96703.31;5050954;28;20486;-79
2022/07/21 10:28:13;;;;;;;8.93;5.65;;;;;;;30.20;50.68;96706.84;5058687;28;20537;-77
2022/07/21 10:30:42;;;;;;;6.85;5.10;;;;;;;29.15;55.29;96712.66;5068056;28;20024;-77
2022/07/21 10:33:08;;;;;;;7.75;5.07;;;;;;;28.48;57.75;96716.13;5066294;28;20024;-78
2022/07/21 10:35:34;;;;;;;7.07;5.65;;;;;;;28.33;61.67;96714.91;5054215;28;20020;-78
2022/07/21 10:38:03;;;;;;;9.00;5.70;;;;;;;28.11;62.74;96709.63;5040399;28;20028;-77
2022/07/21 10:40:29;;;;;;;7.07;4.93;;;;;;;27.37;63.71;96713.00;5078302;28;20045;-77
2022/07/21 10:42:57;;;;;;;7.38;5.15;;;;;;;29.68;55.59;96715.22;5068583;28;20032;-77
2022/07/21 10:45:35;;;;;;;14.77;10.38;;;;;;;29.33;52.39;96706.75;5069008;28;20025;-78
2022/07/21 10:48:04;;;;;;;9.38;7.93;;;;;;;30.49;48.13;96709.00;5071707;28;20051;-77
2022/07/21 10:50:30;;;;;;;8.63;5.68;;;;;;;31.20;46.32;96700.59;5075139;28;20036;-77
2022/07/21 10:52:57;;;;;;;6.82;4.97;;;;;;;31.38;46.36;96698.34;5055983;28;20431;-77
2022/07/21 10:55:27;;;;;;;6.82;5.03;;;;;;;31.89;43.62;96692.56;5080979;28;20020;-77
2022/07/21 10:58:23;;;;;;;7.32;5.43;;;;;;;30.79;44.98;96693.75;5054850;28;20051;-78
2022/07/21 11:00:59;;;;;;;6.68;5.30;;;;;;;31.45;44.56;96688.78;5081232;28;20039;-78
2022/07/21 11:03:28;;;;;;;8.13;5.45;;;;;;;31.08;49.09;96691.16;5053058;28;20028;-78
2022/07/21 11:06:08;;;;;;;7.22;5.35;;;;;;;31.51;44.18;96684.13;5064577;28;20039;-78
2022/07/21 11:08:36;;;;;;;7.13;5.43;;;;;;;32.06;42.93;96689.44;5061893;28;20039;-78
2022/07/21 11:11:10;;;;;;;6.88;5.55;;;;;;;31.09;43.92;96688.16;5062665;28;20114;-78
2022/07/21 11:14:10;;;;;;;7.53;5.72;;;;;;;30.67;47.04;96675.81;5046164;28;20032;-78
2022/07/21 11:16:41;;;;;;;8.63;5.97;;;;;;;30.95;48.51;96671.66;5070194;28;20063;-78
2022/07/21 11:19:29;;;;;;;7.87;5.40;;;;;;;30.95;45.30;96668.13;5057669;28;20411;-78
2022/07/21 11:21:57;;;;;;;8.85;5.50;;;;;;;31.36;47.69;96674.19;5066322;28;20029;-78